Home > Products > Valid Products > TAF

000
FTUS42 KFFC 021100 AAA
TAFMCN
TAF AMD
KMCN 021149Z 0212/0312 00000KT 4SM BR FEW002
      TEMPO 0212/0213 1SM BR OVC002
     FM021400 14004KT P6SM SCT035
     FM030000 16003KT P6SM FEW250
     FM031000 15003KT 4SM BR BKN070
     FM031100 15003KT 2SM BR BKN025=



000
FTUS42 KFFC 021100
TAFMCN
TAF
KMCN 021126Z 0212/0312 00000KT 4SM BR FEW002
     FM021400 14004KT P6SM SCT035
     FM030000 16003KT P6SM FEW250
     FM031000 15003KT 4SM BR BKN070
     FM031100 15003KT 2SM BR BKN025=



000
FTUS42 KFFC 021100
TAFPDK
TAF
KPDK 021126Z 0212/0312 00000KT P6SM SKC
     FM021600 17004KT P6SM SCT045
     FM030000 16003KT P6SM FEW250
     FM030900 17004KT P6SM OVC050
     FM031000 16004KT 6SM -SHRA BR OVC025=



000
FTUS42 KFFC 021100
TAFAHN
TAF
KAHN 021126Z 0212/0312 00000KT P6SM FEW250
     FM021600 16004KT P6SM SCT045
     FM030000 15003KT P6SM FEW250
     FM031000 15003KT P6SM OVC050
     FM031100 15003KT 3SM -SHRA BR OVC025=



000
FTUS42 KFFC 021100
TAFCSG
TAF
KCSG 021126Z 0212/0312 00000KT P6SM FEW250
     FM021600 17004KT P6SM SCT045
     FM030000 16003KT P6SM FEW250
     FM030900 15003KT P6SM BKN050
     FM031100 15003KT 6SM BR OVC025=



000
FTUS42 KFFC 021100
TAFFTY
TAF
KFTY 021126Z 0212/0312 00000KT P6SM SKC
     FM021600 17004KT P6SM SCT045
     FM030000 16003KT P6SM FEW250
     FM030900 17004KT P6SM OVC050
     FM031000 16004KT 6SM -SHRA BR OVC025=



000
FTUS42 KFFC 021100
TAFRYY
TAF
KRYY 021126Z 0212/0312 00000KT P6SM SKC
     FM021600 17004KT P6SM SCT045
     FM030000 16003KT P6SM FEW250
     FM030900 17004KT P6SM OVC050
     FM031000 16004KT 6SM -SHRA BR OVC025=



000
FTUS42 KFFC 021100
TAFATL
TAF
KATL 021126Z 0212/0318 19003KT P6SM FEW250
     FM021600 17006KT P6SM SCT045
     FM030000 16005KT P6SM FEW250
     FM030900 16005KT P6SM OVC050
     FM031000 16005KT 6SM -SHRA BR OVC025
     FM031200 17006KT 5SM SHRA BR OVC008
     FM031500 20008G14KT 5SM TSRA BR BKN010 OVC025CB=



000
FTUS42 KFFC 020900 AAB
TAFATL
TAF AMD
KATL 020955Z 0210/0312 17004KT P6SM FEW250
     FM021500 17006KT P6SM SCT045
     FM030000 16005KT P6SM FEW250
     FM030900 16005KT P6SM OVC070
     FM031100 16005KT 6SM -SHRA BR OVC025=



000
FTUS42 KFFC 020700 AAA
TAFMCN
TAF AMD
KMCN 020756Z 0208/0306 00000KT 4SM BR SCT035
      TEMPO 0208/0212 2SM BR VV002
     FM021400 17004KT P6SM SCT035
     FM030000 16003KT P6SM FEW250=



000
FTUS42 KFFC 020700 AAA
TAFATL
TAF AMD
KATL 020756Z 0208/0312 17004KT P6SM FEW250
     FM021500 17006KT P6SM SCT045
     FM030000 16005KT P6SM FEW250
     FM030900 16005KT P6SM OVC070
     FM031100 16005KT 6SM -SHRA BR OVC025=



000
FTUS42 KFFC 020500
TAFFTY
TAF
KFTY 020523Z 0206/0306 00000KT P6SM SKC
      TEMPO 0211/0213 4SM BR
     FM021500 17004KT P6SM SCT045
     FM030000 16003KT P6SM FEW250=



000
FTUS42 KFFC 020500
TAFCSG
TAF
KCSG 020523Z 0206/0306 VRB03KT P6SM FEW250
     FM021000 00000KT 6SM BR SCT035
      TEMPO 0210/0213 4SM BR
     FM021400 17004KT P6SM SCT045
     FM030000 16003KT P6SM FEW250=



000
FTUS42 KFFC 020500
TAFRYY
TAF
KRYY 020523Z 0206/0306 00000KT P6SM SKC
      TEMPO 0211/0213 5SM BR
     FM021500 17004KT P6SM SCT045
     FM030000 16003KT P6SM FEW250
      AMD NOT SKED TIL 021200=



000
FTUS42 KFFC 020500
TAFAHN
TAF
KAHN 020523Z 0206/0306 00000KT P6SM FEW250
     FM021000 00000KT 4SM BR FEW250
     FM021300 17003KT P6SM FEW250
     FM021500 17004KT P6SM SCT045
     FM030000 16003KT P6SM FEW250=



000
FTUS42 KFFC 020500
TAFPDK
TAF
KPDK 020523Z 0206/0306 00000KT P6SM SKC
      TEMPO 0211/0213 5SM BR
     FM021500 17004KT P6SM SCT045
     FM030000 16003KT P6SM FEW250=



000
FTUS42 KFFC 020500
TAFATL
TAF
KATL 020523Z 0206/0312 17004KT P6SM FEW250
     FM021500 17006KT P6SM SCT045
     FM030000 16005KT P6SM FEW250
     FM030900 16005KT P6SM OVC070
     FM031100 16005KT 6SM -SHRA BR OVC025=



000
FTUS42 KFFC 020500
TAFMCN
TAF
KMCN 020523Z 0206/0306 00000KT P6SM FEW250
     FM021000 00000KT 4SM BR SCT035
      TEMPO 0210/0213 2SM BR
     FM021400 17004KT P6SM SCT035
     FM030000 16003KT P6SM FEW250=



000
FTUS42 KFFC 020300 AAB
TAFATL
TAF AMD
KATL 020342Z 0204/0306 VRB03KT P6SM SCT250
     FM021200 17005KT P6SM SKC
     FM021500 17006KT P6SM SCT045
     FM030300 15003KT P6SM SKC=



000
FTUS42 KFFC 020200 AAA
TAFATL
TAF AMD
KATL 020211Z 0202/0306 VRB03KT P6SM SCT250
     FM021200 17005KT P6SM SKC
     FM021500 17006KT P6SM SCT045
     FM030300 15003KT P6SM SKC=



000
FTUS42 KFFC 012300
TAFCSG
TAF
KCSG 012324Z 0200/0224 VRB03KT P6SM SKC
     FM021000 00000KT 6SM BR SCT012
      TEMPO 0210/0213 4SM BR OVC012
     FM021400 17004KT P6SM SCT035=



000
FTUS42 KFFC 012300
TAFFTY
TAF
KFTY 012324Z 0200/0224 VRB03KT P6SM SKC
     FM021500 17004KT P6SM SCT045=



000
FTUS42 KFFC 012300
TAFAHN
TAF
KAHN 012324Z 0200/0224 VRB03KT P6SM SKC
     FM021000 VRB03KT 4SM BR SCT030
     FM021300 17003KT P6SM SCT030
     FM021500 17004KT P6SM SCT045=



000
FTUS42 KFFC 012300
TAFATL
TAF
KATL 012324Z 0200/0306 VRB03KT P6SM FEW060
     FM020200 VRB03KT P6SM SKC
     FM021200 17005KT P6SM SKC
     FM021500 17006KT P6SM SCT045
     FM030300 15003KT P6SM SKC=



000
FTUS42 KFFC 012300
TAFMCN
TAF
KMCN 012324Z 0200/0224 00000KT P6SM SKC
     FM021000 00000KT 4SM BR SCT012
      TEMPO 0210/0213 2SM BR OVC012
     FM021400 17004KT P6SM SCT035=



000
FTUS42 KFFC 012300
TAFPDK
TAF
KPDK 012324Z 0200/0224 VRB03KT P6SM SKC
     FM021500 17004KT P6SM SCT045=



000
FTUS42 KFFC 012300
TAFRYY
TAF
KRYY 012324Z 0200/0224 VRB03KT P6SM SCT060
     FM020100 VRB03KT P6SM SKC
     FM021500 17004KT P6SM SCT045
      AMD NOT SKED 0204/0212=



000
FTUS42 KFFC 012100 AAB
TAFATL
TAF AMD
KATL 012154Z 0122/0224 22004KT P6SM SCT050
     FM020100 VRB03KT P6SM SKC
     FM021200 17005KT P6SM BKN030
     FM021500 17006KT P6SM SCT045=



000
FTUS42 KFFC 011900 AAA
TAFATL
TAF AMD
KATL 011937Z 0120/0224 24004KT P6SM SCT050
     FM020100 VRB03KT P6SM SKC
     FM021200 17005KT P6SM BKN030
     FM021500 17006KT P6SM SCT045=



000
FTUS42 KFFC 011700
TAFFTY
TAF
KFTY 011720Z 0118/0218 24004KT P6SM SCT050
     FM020100 VRB03KT P6SM SKC
     FM021300 17003KT P6SM BKN030
     FM021500 17004KT P6SM SCT045=



000
FTUS42 KFFC 011700
TAFRYY
TAF
KRYY 011720Z 0118/0218 24004KT P6SM SCT050
     FM020100 VRB03KT P6SM SKC
     FM021300 17003KT P6SM BKN030
     FM021500 17004KT P6SM SCT045=



000
FTUS42 KFFC 011700
TAFATL
TAF
KATL 011720Z 0118/0224 24004KT P6SM SCT050
     FM020100 VRB03KT P6SM SKC
     FM021200 17005KT P6SM BKN030
     FM021500 17006KT P6SM SCT045=



000
FTUS42 KFFC 011700
TAFAHN
TAF
KAHN 011720Z 0118/0218 21004KT P6SM SCT050
     FM020100 VRB03KT P6SM SKC
     FM021000 VRB03KT 5SM BR SCT030
     FM021200 17003KT P6SM BKN030
     FM021500 17004KT P6SM SCT045=



000
FTUS42 KFFC 011700
TAFPDK
TAF
KPDK 011720Z 0118/0218 24004KT P6SM SCT050
     FM020100 VRB03KT P6SM SKC
     FM021300 17003KT P6SM BKN030
     FM021500 17004KT P6SM SCT045=



000
FTUS42 KFFC 011700
TAFCSG
TAF
KCSG 011720Z 0118/0218 21003KT P6SM BKN060
     FM020100 00000KT P6SM SKC
     FM021000 00000KT 6SM BR SCT012
      TEMPO 0210/0213 4SM BR OVC012
     FM021400 17004KT P6SM SCT035=



000
FTUS42 KFFC 011700
TAFMCN
TAF
KMCN 011720Z 0118/0218 23003KT P6SM BKN060
     FM020100 00000KT P6SM SKC
     FM021000 00000KT 4SM BR SCT012
      TEMPO 0210/0213 2SM BR OVC012
     FM021400 17004KT P6SM SCT035=



000
FTUS42 KFFC 011500 AAB
TAFATL
TAF AMD
KATL 011556Z 0116/0218 29005KT P6SM SCT050
     FM020000 VRB03KT P6SM SKC
     FM021500 17004KT P6SM SCT045=



000
FTUS42 KFFC 011300 AAA
TAFATL
TAF AMD
KATL 011357Z 0114/0218 30005KT P6SM SCT200
     FM011600 30005KT P6SM FEW050
     FM020000 VRB03KT P6SM SKC
     FM021500 17004KT P6SM SCT045=



000
FTUS42 KFFC 011200 AAA
TAFPDK
TAF AMD
KPDK 011210Z 0112/0212 00000KT 6SM BR FEW250
      TEMPO 0112/0113 3SM BR
     FM011400 20003KT P6SM FEW050
     FM020000 00000KT P6SM SKC=



000
FTUS42 KFFC 011100
TAFMCN
TAF
KMCN 011120Z 0112/0212 00000KT 3SM BR FEW003
     FM011400 23003KT P6SM FEW040
     FM020000 00000KT P6SM SKC
     FM021000 00000KT 4SM BR FEW250=



000
FTUS42 KFFC 011100
TAFCSG
TAF
KCSG 011120Z 0112/0212 00000KT P6SM FEW250
     FM011400 23003KT P6SM FEW040
     FM020000 00000KT P6SM SKC=



000
FTUS42 KFFC 011100
TAFFTY
TAF
KFTY 011120Z 0112/0212 00000KT 6SM BR FEW250
     FM011400 20003KT P6SM FEW050
     FM020000 00000KT P6SM SKC=



000
FTUS42 KFFC 011100
TAFRYY
TAF
KRYY 011120Z 0112/0212 00000KT 6SM BR FEW250
     FM011400 20003KT P6SM FEW050
     FM020000 00000KT P6SM SKC=



000
FTUS42 KFFC 011100
TAFATL
TAF
KATL 011120Z 0112/0218 28004KT P6SM FEW250
     FM011400 24005KT P6SM FEW050
     FM020000 VRB03KT P6SM SKC
     FM021500 17004KT P6SM SCT045=



000
FTUS42 KFFC 011100
TAFPDK
TAF
KPDK 011120Z 0112/0212 00000KT 6SM BR FEW250
     FM011400 20003KT P6SM FEW050
     FM020000 00000KT P6SM SKC=



000
FTUS42 KFFC 011100
TAFAHN
TAF
KAHN 011120Z 0112/0212 00000KT 6SM BR FEW250
     FM011400 20003KT P6SM FEW050
     FM020000 00000KT P6SM SKC
     FM021000 00000KT 4SM BR FEW250=



000
FTUS42 KFFC 010900 AAB
TAFATL
TAF AMD
KATL 010959Z 0110/0212 25004KT 6SM BR FEW250
     FM011400 20005KT P6SM FEW050
     FM020000 VRB03KT P6SM SKC=



000
FTUS42 KFFC 010700 AAA
TAFATL
TAF AMD
KATL 010758Z 0108/0212 20003KT P6SM FEW250
     FM011000 20002KT 6SM BR FEW010
     FM011400 20005KT P6SM FEW050
     FM020000 VRB03KT P6SM SKC=



000
FTUS42 KFFC 010700 AAA
TAFPDK
TAF AMD
KPDK 010710Z 0107/0206 00000KT 5SM BR FEW010
     FM011400 20003KT P6SM FEW050
     FM020000 00000KT P6SM SKC=



000
FTUS42 KFFC 010500
TAFRYY
TAF
KRYY 010529Z 0106/0206 00000KT P6SM FEW050
     FM010900 00000KT 5SM BR FEW010
     FM011400 20003KT P6SM FEW050
     FM020000 00000KT P6SM SKC
      AMD NOT SKED TIL 011200=



000
FTUS42 KFFC 010500
TAFATL
TAF
KATL 010529Z 0106/0212 20003KT P6SM FEW250
     FM011000 20002KT 6SM BR FEW010
     FM011400 20005KT P6SM FEW050
     FM020000 VRB03KT P6SM SKC=



000
FTUS42 KFFC 010500
TAFMCN
TAF
KMCN 010529Z 0106/0206 00000KT 2SM BR FEW003
      TEMPO 0109/0112 1/2SM FG VV002
     FM011400 23003KT P6SM FEW040
     FM020000 00000KT P6SM SKC=



000
FTUS42 KFFC 010500
TAFFTY
TAF
KFTY 010529Z 0106/0206 00000KT P6SM FEW050
     FM010900 00000KT 5SM BR FEW010
     FM011400 20003KT P6SM FEW050
     FM020000 00000KT P6SM SKC=



000
FTUS42 KFFC 010500
TAFCSG
TAF
KCSG 010529Z 0106/0206 VRB03KT P6SM FEW250
     FM011000 00000KT 3SM BR FEW008
     FM011400 23003KT P6SM FEW040
     FM020000 00000KT P6SM SKC=



000
FTUS42 KFFC 010500
TAFAHN
TAF
KAHN 010529Z 0106/0206 00000KT P6SM SKC
     FM010900 00000KT 3SM BR SCT010
     FM011400 20003KT P6SM FEW050
     FM020000 00000KT P6SM SKC=



000
FTUS42 KFFC 010500
TAFPDK
TAF
KPDK 010529Z 0106/0206 00000KT P6SM FEW050
     FM010900 00000KT 5SM BR FEW010
     FM011400 20003KT P6SM FEW050
     FM020000 00000KT P6SM SKC=



000
FTUS42 KFFC 010300 AAB
TAFATL
TAF AMD
KATL 010331Z 0104/0206 20003KT P6SM FEW250
     FM011000 20002KT 6SM BR FEW010
     FM011400 20005KT P6SM SCT050
     FM020000 VRB03KT P6SM SKC=



000
FTUS42 KFFC 010300 AAA
TAFMCN
TAF AMD
KMCN 010313Z 0103/0124 00000KT P6SM SKC
      TEMPO 0103/0106 2SM BR
     FM010600 00000KT 2SM BR SCT008 SCT030
     FM011400 23005KT P6SM SCT040=



000
FTUS42 KFFC 010100 AAA
TAFATL
TAF AMD
KATL 010152Z 0102/0206 VRB03KT P6SM FEW250
     FM011000 VRB02KT 6SM BR FEW010
     FM011400 20005KT P6SM SCT050
     FM020000 VRB03KT P6SM SKC=



000
FTUS42 KFFC 302300
TAFAHN
TAF
KAHN 302322Z 0100/0124 00000KT P6SM SKC
     FM011000 00000KT 3SM BR SCT010
     FM011400 20005KT P6SM SCT040=



000
FTUS42 KFFC 302300
TAFRYY
TAF
KRYY 302322Z 0100/0124 34005KT P6SM FEW050
     FM011000 VRB02KT 5SM BR FEW010
     FM011400 20005KT P6SM SCT050=



000
FTUS42 KFFC 302300
TAFFTY
TAF
KFTY 302322Z 0100/0124 00000KT P6SM FEW050
     FM011000 VRB02KT 5SM BR FEW010
     FM011400 20005KT P6SM SCT050=



000
FTUS42 KFFC 302300
TAFATL
TAF
KATL 302322Z 0100/0206 VRB03KT P6SM FEW050
     FM011000 VRB02KT 6SM BR FEW010
     FM011400 20005KT P6SM SCT050
     FM020000 VRB03KT P6SM SKC=



000
FTUS42 KFFC 302300
TAFCSG
TAF
KCSG 302322Z 0100/0124 VRB03KT P6SM FEW050
     FM011000 00000KT 2SM BR SCT008
     FM011400 23005KT P6SM SCT040=



000
FTUS42 KFFC 302300
TAFPDK
TAF
KPDK 302322Z 0100/0124 00000KT P6SM SKC
     FM011000 VRB02KT 5SM BR FEW010
     FM011400 20005KT P6SM SCT050=



000
FTUS42 KFFC 302300
TAFMCN
TAF
KMCN 302322Z 0100/0124 00000KT P6SM SKC
     FM011000 00000KT 2SM BR SCT008 SCT030
     FM011400 23005KT P6SM SCT040=



000
FTUS42 KFFC 302100 AAB
TAFATL
TAF AMD
KATL 302158Z 3022/0124 VRB03KT P6SM FEW050
     FM011000 VRB02KT 6SM BR FEW010
     FM011400 20005KT P6SM SCT050=



000
FTUS42 KFFC 301900 AAA
TAFATL
TAF AMD
KATL 301947Z 3020/0124 34003KT P6SM SCT045
     FM302200 VRB03KT P6SM FEW050
     FM011000 VRB02KT 6SM BR FEW010
     FM011400 20005KT P6SM SCT050=



000
FTUS42 KFFC 301800 AAA
TAFMCN
TAF AMD
KMCN 301858Z 3019/0118 04005KT P6SM SCT020 BKN040
      TEMPO 3019/3022 BKN020
     FM302200 VRB03KT P6SM BKN040
     FM010100 VRB03KT P6SM SCT030
     FM011000 00000KT 2SM BR SCT008 SCT030
     FM011400 23005KT P6SM SCT040=



000
FTUS42 KFFC 301800 AAA
TAFCSG
TAF AMD
KCSG 301858Z 3019/0118 04005KT P6SM SCT020 BKN040
      TEMPO 3019/3022 BKN025
     FM302200 VRB03KT P6SM SCT040
     FM011000 00000KT 2SM BR SCT008
     FM011400 23005KT P6SM SCT040=



000
FTUS42 KFFC 301700
TAFCSG
TAF
KCSG 301720Z 3018/0118 04005KT P6SM SCT020 BKN040
      TEMPO 3018/3020 BKN020
     FM302200 VRB03KT P6SM SCT040
     FM011000 00000KT 2SM BR SCT008
     FM011400 23005KT P6SM SCT040=



000
FTUS42 KFFC 301700
TAFAHN
TAF
KAHN 301720Z 3018/0118 04003KT P6SM SCT030
     FM302200 VRB03KT P6SM FEW040
     FM011000 00000KT 3SM BR SCT010
     FM011400 20005KT P6SM SCT040=



000
FTUS42 KFFC 301700
TAFRYY
TAF
KRYY 301720Z 3018/0118 06005KT P6SM SCT035
     FM302200 03003KT P6SM FEW050
     FM011000 VRB02KT 5SM BR FEW010
     FM011400 20005KT P6SM SCT050=



000
FTUS42 KFFC 301700
TAFPDK
TAF
KPDK 301720Z 3018/0118 06005KT P6SM SCT035
     FM302200 03003KT P6SM FEW050
     FM011000 VRB02KT 5SM BR FEW010
     FM011400 20005KT P6SM SCT050=



000
FTUS42 KFFC 301700
TAFATL
TAF
KATL 301720Z 3018/0124 06006KT P6SM SCT035
     FM302200 03003KT P6SM FEW050
     FM011000 VRB02KT 6SM BR FEW010
     FM011400 20005KT P6SM SCT050=



000
FTUS42 KFFC 301700
TAFFTY
TAF
KFTY 301720Z 3018/0118 06005KT P6SM SCT035
     FM302200 03003KT P6SM FEW050
     FM011000 VRB02KT 5SM BR FEW010
     FM011400 20005KT P6SM SCT050=



000
FTUS42 KFFC 301700
TAFMCN
TAF
KMCN 301720Z 3018/0118 04005KT P6SM SCT020 BKN040
      TEMPO 3018/3020 BKN020
     FM302200 VRB03KT P6SM SCT040
     FM011000 00000KT 2SM BR SCT008
     FM011400 23005KT P6SM SCT040=



000
FTUS42 KFFC 301600 AAB
TAFMCN
TAF AMD
KMCN 301620Z 3016/0112 03005KT P6SM SCT020
      TEMPO 3016/3018 BKN020
     FM301800 04005KT P6SM SCT040
     FM302200 VRB03KT P6SM FEW100
     FM010900 00000KT 3SM BR FEW250=



000
FTUS42 KFFC 301600 AAA
TAFAHN
TAF AMD
KAHN 301620Z 3016/0112 04003KT 6SM BR SCT015
      TEMPO 3016/3018 BKN015
     FM301800 04003KT P6SM FEW040
     FM302200 VRB03KT P6SM FEW100
     FM011000 00000KT 3SM BR FEW250=



000
FTUS42 KFFC 301500 AAB
TAFATL
TAF AMD
KATL 301553Z 3016/0118 03007KT P6SM SCT025
     FM301800 03004KT P6SM FEW040
     FM302200 03003KT P6SM FEW100
     FM010400 VRB02KT P6SM FEW250
     FM011500 17003KT P6SM FEW040=



000
FTUS42 KFFC 301400 AAA
TAFMCN
TAF AMD
KMCN 301411Z 3014/0112 03005KT P6SM SCT010
      TEMPO 3014/3016 BKN010
     FM301700 04005KT P6SM SCT040
     FM302200 VRB03KT P6SM FEW100
     FM010900 00000KT 3SM BR FEW250=



000
FTUS42 KFFC 301300 AAA
TAFATL
TAF AMD
KATL 301339Z 3014/0118 08004KT P6SM SCT010
     FM301500 06004KT P6SM SCT025
     FM301800 03004KT P6SM FEW040
     FM302200 03003KT P6SM FEW100
     FM010400 VRB02KT P6SM FEW250
     FM011500 17003KT P6SM FEW040=



000
FTUS42 KFFC 301100
TAFCSG
TAF
KCSG 301121Z 3012/0112 06004KT P6SM BKN015
      TEMPO 3012/3013 BKN008
     FM301400 06005KT 6SM BR SCT015
     FM301700 06005KT P6SM SCT040
     FM302200 VRB03KT P6SM FEW100=



000
FTUS42 KFFC 301100
TAFPDK
TAF
KPDK 301121Z 3012/0112 00000KT P6SM BKN015
     FM301400 00000KT P6SM SCT010
     FM301800 02003KT P6SM FEW040
     FM302200 VRB03KT P6SM FEW100
     FM011000 00000KT 5SM BR FEW250=



000
FTUS42 KFFC 301100
TAFATL
TAF
KATL 301121Z 3012/0118 06005KT P6SM BKN015
      TEMPO 3012/3013 BKN008
     FM301400 04004KT P6SM SCT010
     FM301800 02004KT P6SM FEW040
     FM302200 03003KT P6SM FEW100
     FM010400 VRB02KT P6SM FEW250
     FM011500 17003KT P6SM FEW040=



000
FTUS42 KFFC 301100
TAFFTY
TAF
KFTY 301121Z 3012/0112 00000KT P6SM BKN015
     FM301400 00000KT P6SM SCT010
     FM301800 02003KT P6SM FEW040
     FM302200 VRB03KT P6SM FEW100
     FM011000 00000KT 5SM BR FEW250=



000
FTUS42 KFFC 301100
TAFRYY
TAF
KRYY 301121Z 3012/0112 00000KT P6SM BKN015
     FM301400 00000KT P6SM SCT010
     FM301800 02003KT P6SM FEW040
     FM302200 VRB03KT P6SM FEW100
     FM011000 00000KT 5SM BR FEW250=



000
FTUS42 KFFC 301100
TAFMCN
TAF
KMCN 301121Z 3012/0112 05004KT P6SM BKN015
      TEMPO 3012/3013 BKN008
     FM301400 03005KT P6SM SCT010
     FM301700 04005KT P6SM SCT040
     FM302200 VRB03KT P6SM FEW100
     FM010900 00000KT 3SM BR FEW250=



000
FTUS42 KFFC 301100
TAFAHN
TAF
KAHN 301121Z 3012/0112 05003KT 2SM BR OVC006
      TEMPO 3012/3013 1/2SM FG OVC004
     FM301400 04003KT 6SM BR SCT015
     FM301800 04003KT P6SM FEW040
     FM302200 VRB03KT P6SM FEW100
     FM011000 00000KT 3SM BR FEW250=



000
FTUS42 KFFC 300900 AAB
TAFATL
TAF AMD
KATL 300956Z 3010/0112 06005KT 6SM -DZ BR BKN006
      TEMPO 3010/3012 4SM -DZ BR BKN004
     FM301400 04004KT P6SM SCT010
     FM301800 02004KT P6SM FEW040
     FM302200 03003KT P6SM FEW100
     FM010400 VRB02KT P6SM FEW250=



000
FTUS42 KFFC 300700 AAA
TAFATL
TAF AMD
KATL 300758Z 3008/0112 06005KT 6SM -DZ BR BKN006
      TEMPO 3009/3012 4SM -DZ BR BKN004
     FM301400 04004KT P6SM SCT010
     FM301800 02004KT P6SM FEW040
     FM302200 03003KT P6SM FEW100
     FM010400 VRB02KT P6SM FEW250=



000
FTUS42 KFFC 300500
TAFFTY
TAF
KFTY 300526Z 3006/0106 00000KT 4SM -DZ BR BKN006
      TEMPO 3009/3012 2SM -DZ BR BKN004
     FM301400 00000KT P6SM SCT010
     FM301800 02003KT P6SM FEW040
     FM302200 VRB03KT P6SM FEW100=



000
FTUS42 KFFC 300500
TAFMCN
TAF
KMCN 300526Z 3006/0106 05004KT 4SM -DZ BR BKN008
     FM300800 05004KT 3SM -DZ BR OVC004
     FM301400 03005KT 6SM BR SCT010
     FM301700 04005KT P6SM SCT040
     FM302200 VRB03KT P6SM FEW100=



000
FTUS42 KFFC 300500
TAFAHN
TAF
KAHN 300526Z 3006/0106 05003KT 3SM -DZ BR OVC004
     FM301400 04003KT 6SM BR SCT015
     FM301800 04003KT P6SM FEW040
     FM302200 VRB03KT P6SM FEW100=



000
FTUS42 KFFC 300500
TAFRYY
TAF
KRYY 300526Z 3006/0106 00000KT 4SM -DZ BR BKN006
      TEMPO 3009/3012 2SM -DZ BR BKN004
     FM301400 00000KT P6SM SCT010
     FM301800 02003KT P6SM FEW040
     FM302200 VRB03KT P6SM FEW100
      AMD NOT SKED TIL 301200=



000
FTUS42 KFFC 300500
TAFCSG
TAF
KCSG 300526Z 3006/0106 06004KT 5SM -DZ BR BKN008
     FM300800 06004KT 4SM -DZ BR OVC004
     FM301400 06005KT 6SM BR SCT015
     FM301700 06005KT P6SM SCT040
     FM302200 VRB03KT P6SM FEW100=



000
FTUS42 KFFC 300500
TAFPDK
TAF
KPDK 300526Z 3006/0106 00000KT 4SM -DZ BR BKN006
      TEMPO 3009/3012 2SM -DZ BR BKN004
     FM301400 00000KT P6SM SCT010
     FM301800 02003KT P6SM FEW040
     FM302200 VRB03KT P6SM FEW100=



000
FTUS42 KFFC 300500
TAFATL
TAF
KATL 300526Z 3006/0112 06004KT 6SM -DZ BR BKN006
      TEMPO 3009/3012 4SM -DZ BR BKN004
     FM301400 04004KT P6SM SCT010
     FM301800 02004KT P6SM FEW040
     FM302200 03003KT P6SM FEW100
     FM010400 VRB02KT P6SM FEW250=



000
FTUS42 KFFC 300300 AAD
TAFATL
TAF AMD
KATL 300345Z 3004/0106 07007KT P6SM SCT006 BKN012
      TEMPO 3004/3006 BKN007
     FM300600 06004KT 4SM BR BKN006
     FM301300 04005KT P6SM SCT015
     FM301800 02006KT P6SM FEW040=



000
FTUS42 KFFC 300300 AAA
TAFCSG
TAF AMD
KCSG 300308Z 3003/3024 06005KT P6SM SCT008 BKN012
     FM300500 06004KT 5SM BR BKN008
     FM300700 06004KT 4SM BR OVC004
     FM301400 06005KT 6SM BR BKN015
     FM301700 06006KT P6SM SCT040=



000
FTUS42 KFFC 300300 AAB
TAFFTY
TAF AMD
KFTY 300308Z 3003/3024 06004KT P6SM SCT006 BKN012
      TEMPO 3003/3006 BKN007
     FM300600 05003KT 4SM BR BKN006
     FM301300 04004KT P6SM SCT015
     FM301800 02006KT P6SM FEW040=



000
FTUS42 KFFC 300300 AAC
TAFATL
TAF AMD
KATL 300308Z 3003/0106 08007KT P6SM SCT006 BKN012
      TEMPO 3003/3006 BKN007
     FM300600 06004KT 4SM BR BKN006
     FM301300 04005KT P6SM SCT015
     FM301800 02006KT P6SM FEW040=



000
FTUS42 KFFC 300300 AAB
TAFRYY
TAF AMD
KRYY 300308Z 3003/3024 09006KT P6SM SCT006 BKN012
      TEMPO 3003/3006 BKN007
     FM300600 05003KT 4SM BR BKN006
     FM301300 04004KT P6SM SCT015
     FM301800 02006KT P6SM FEW040
      AMD NOT SKED 3004/3012=



000
FTUS42 KFFC 300300 AAB
TAFAHN
TAF AMD
KAHN 300308Z 3003/3024 08004KT P6SM SCT004 BKN012
      TEMPO 3003/3005 BKN006
     FM300500 06004KT 5SM BR BKN006
     FM300700 05004KT 3SM BR OVC004
     FM301400 04005KT 6SM BR SCT015
     FM301800 07006KT P6SM FEW040=



000
FTUS42 KFFC 300300 AAB
TAFPDK
TAF AMD
KPDK 300308Z 3003/3024 07006KT P6SM SCT006 BKN012
      TEMPO 3003/3006 BKN007
     FM300600 05003KT 4SM BR BKN006
     FM301300 04004KT P6SM SCT015
     FM301800 02006KT P6SM FEW040=



000
FTUS42 KFFC 300300 AAA
TAFMCN
TAF AMD
KMCN 300308Z 3003/3024 05007KT P6SM SCT008 BKN012
     FM300500 05004KT 4SM BR BKN008
     FM300700 05004KT 3SM BR OVC004
     FM301400 03005KT 6SM BR BKN012
     FM301700 04006KT P6SM SCT040=



000
FTUS42 KFFC 300100 AAB
TAFATL
TAF AMD
KATL 300145Z 3002/0106 08007KT P6SM SCT006 BKN012
      TEMPO 3002/3003 BKN007
     FM300300 06006KT P6SM SCT015 BKN025
     FM300600 06004KT 4SM BR BKN007
     FM301300 04005KT P6SM SCT015
     FM301800 02006KT P6SM FEW040=



000
FTUS42 KFFC 300100 AAA
TAFAHN
TAF AMD
KAHN 300137Z 3002/3024 08006KT P6SM SCT006 BKN016
      TEMPO 3002/3003 BKN006
     FM300300 08005KT P6SM BKN025
     FM300500 06005KT 5SM BR BKN006
     FM300700 05004KT 3SM BR OVC004
     FM301400 04005KT 6SM BR SCT015
     FM301800 07006KT P6SM FEW040=



000
FTUS42 KFFC 300100 AAA
TAFATL
TAF AMD
KATL 300116Z 3001/0106 08007KT P6SM SCT006 BKN012
      TEMPO 3001/3003 BKN007
     FM300300 06006KT P6SM SCT015 BKN025
     FM300600 06004KT 4SM BR BKN007
     FM301300 04005KT P6SM SCT015
     FM301800 02006KT P6SM FEW040=



000
FTUS42 KFFC 300100 AAA
TAFFTY
TAF AMD
KFTY 300116Z 3001/3024 06004KT P6SM SCT006 BKN012
      TEMPO 3001/3003 BKN007
     FM300300 07003KT P6SM SCT015 BKN025
     FM300600 05003KT 4SM BR BKN007
     FM301300 04004KT P6SM SCT015
     FM301800 02006KT P6SM FEW040=



000
FTUS42 KFFC 300100 AAA
TAFPDK
TAF AMD
KPDK 300116Z 3001/3024 07006KT P6SM SCT006 BKN012
      TEMPO 3001/3003 BKN007
     FM300300 07003KT P6SM SCT015 BKN025
     FM300600 05003KT 4SM BR BKN007
     FM301300 04004KT P6SM SCT015
     FM301800 02006KT P6SM FEW040=



000
FTUS42 KFFC 300100 AAA
TAFRYY
TAF AMD
KRYY 300116Z 3001/3024 09006KT P6SM SCT006 BKN012
      TEMPO 3001/3003 BKN007
     FM300300 07003KT P6SM SCT015 BKN025
     FM300600 05003KT 4SM BR BKN007
     FM301300 04004KT P6SM SCT015
     FM301800 02006KT P6SM FEW040
      AMD NOT SKED 3004/3012=



000
FTUS42 KFFC 292300
TAFATL
TAF
KATL 292340Z 3000/0106 06008KT P6SM SCT008 BKN050
      TEMPO 3000/3002 BKN025
     FM300200 06006KT P6SM SCT025 SCT040
     FM300600 06004KT 4SM BR BKN007
     FM301300 04005KT P6SM SCT015
     FM301800 02006KT P6SM FEW040=



000
FTUS42 KFFC 292300
TAFFTY
TAF
KFTY 292340Z 3000/3024 06004KT P6SM SCT008 BKN050
      TEMPO 3000/3002 BKN025
     FM300200 07003KT P6SM SCT025 SCT040
     FM300600 05003KT 4SM BR BKN007
     FM301300 04004KT P6SM SCT015
     FM301800 02006KT P6SM FEW040=



000
FTUS42 KFFC 292300
TAFMCN
TAF
KMCN 292340Z 3000/3024 05007KT P6SM VCSH BKN008 OVC012
     FM300300 07005KT 5SM BR BKN022
     FM300500 05004KT 4SM BR BKN008
     FM300700 05004KT 3SM BR OVC004
     FM301400 03005KT 6SM BR BKN012
     FM301700 04006KT P6SM SCT040=



000
FTUS42 KFFC 292300
TAFAHN
TAF
KAHN 292340Z 3000/3024 06006KT P6SM VCSH SCT006 OVC016
      TEMPO 3000/3002 BKN006
     FM300200 08005KT P6SM BKN025
     FM300400 06005KT 5SM BR BKN006
     FM300700 05004KT 3SM BR OVC004
     FM301400 04005KT 6SM BR SCT015
     FM301800 07006KT P6SM FEW040=



000
FTUS42 KFFC 292300
TAFRYY
TAF
KRYY 292340Z 3000/3024 09006KT P6SM SCT008 BKN050
      TEMPO 3000/3002 BKN025
     FM300200 07003KT P6SM SCT025 SCT040
     FM300600 05003KT 4SM BR BKN007
     FM301300 04004KT P6SM SCT015
     FM301800 02006KT P6SM FEW040
      AMD NOT SKED 3004/3012=



000
FTUS42 KFFC 292300
TAFPDK
TAF
KPDK 292340Z 3000/3024 03006KT P6SM SCT008 BKN050
      TEMPO 3000/3002 BKN025
     FM300200 07003KT P6SM SCT025 SCT040
     FM300600 05003KT 4SM BR BKN007
     FM301300 04004KT P6SM SCT015
     FM301800 02006KT P6SM FEW040=



000
FTUS42 KFFC 292300
TAFCSG
TAF
KCSG 292340Z 3000/3024 06005KT P6SM VCSH BKN015
     FM300300 06004KT 6SM BR BKN022
     FM300500 06004KT 5SM BR BKN008
     FM300700 06004KT 4SM BR OVC004
     FM301400 06005KT 6SM BR BKN015
     FM301700 06006KT P6SM SCT040=



000
FTUS42 KFFC 292100 AAB
TAFMCN
TAF AMD
KMCN 292153Z 2922/3018 04007KT P6SM VCSH OVC008
      TEMPO 2922/2923 2SM BR
     FM292300 05007KT P6SM VCSH OVC012
     FM300300 07005KT 5SM BR BKN022
     FM300600 05004KT 4SM BR BKN010
     FM301000 05004KT 3SM BR BKN005
     FM301400 03005KT 6SM BR BKN012=



000
FTUS42 KFFC 292100 AAB
TAFCSG
TAF AMD
KCSG 292153Z 2922/3018 05006KT 5SM -DZ VCSH OVC016
      TEMPO 2922/2924 3SM -SHRA
     FM300000 07006KT P6SM VCSH OVC021
     FM300300 08005KT 6SM BR BKN026
     FM300600 07004KT 5SM BR BKN010
     FM301000 06004KT 4SM BR BKN006
     FM301400 05005KT 6SM BR BKN015=



000
FTUS42 KFFC 292100 AAB
TAFPDK
TAF AMD
KPDK 292148Z 2922/3018 03006KT 5SM -DZ VCSH SCT015 BKN050
      TEMPO 2922/2924 3SM -SHRA BR BKN015
     FM300000 06003KT P6SM SCT025 SCT040
     FM300900 06003KT 3SM BR SCT005
     FM301400 05004KT P6SM FEW015=



000
FTUS42 KFFC 292100 AAB
TAFATL
TAF AMD
KATL 292144Z 2922/3024 04008KT 6SM -DZ VCSH SCT015 BKN050
      TEMPO 2922/2924 BKN025
     FM300000 06006KT P6SM SCT025 SCT040
     FM301000 06004KT 3SM BR SCT005
     FM301300 05004KT P6SM FEW015
     FM301800 02006KT P6SM FEW040=



000
FTUS42 KFFC 292100 AAB
TAFRYY
TAF AMD
KRYY 292108Z 2921/3018 09006KT P6SM VCSH SCT015 BKN050
     FM300000 08006KT P6SM SCT025 SCT040
     FM300900 07003KT 3SM BR SCT005
     FM301400 05004KT P6SM FEW015=



000
FTUS42 KFFC 292100 AAB
TAFFTY
TAF AMD
KFTY 292108Z 2921/3018 05006KT P6SM VCSH SCT015 BKN050
     FM300100 05006KT P6SM SCT025 SCT040
     FM300900 06003KT 3SM BR SCT005
     FM301400 05004KT P6SM FEW015=



000
FTUS42 KFFC 291900 AAA
TAFRYY
TAF AMD
KRYY 291934Z 2920/3018 09006KT P6SM VCSH FEW009 OVC015
      TEMPO 2920/2922 5SM -SHRA BR BKN009 OVC015
     FM300000 08006KT P6SM OVC021
     FM300500 09004KT P6SM SCT025 SCT040
     FM300900 07003KT 3SM BR SCT005
     FM301400 05004KT P6SM FEW015=



000
FTUS42 KFFC 291900 AAA
TAFCSG
TAF AMD
KCSG 291934Z 2920/3018 05006KT P6SM VCSH OVC016
     FM300000 07006KT P6SM VCSH OVC021
     FM300300 08005KT 6SM BR BKN026
     FM300600 07004KT 5SM BR BKN010
     FM301000 06004KT 4SM BR BKN006
     FM301400 05005KT 6SM BR BKN015=



000
FTUS42 KFFC 291900 AAA
TAFFTY
TAF AMD
KFTY 291934Z 2920/3018 05006KT 6SM -DZ VCSH SCT006 OVC016
      TEMPO 2920/2923 3SM -SHRA BR BKN006 OVC015
     FM300100 05006KT 6SM BR OVC021
     FM300600 06004KT P6SM SCT025 SCT040
     FM300900 06003KT 3SM BR SCT005
     FM301400 05004KT P6SM FEW015=



000
FTUS42 KFFC 291900 AAA
TAFMCN
TAF AMD
KMCN 291934Z 2920/3018 06007KT P6SM VCSH OVC008
      TEMPO 2920/2923 5SM -SHRA BR
     FM292300 05007KT P6SM VCSH OVC012
     FM300300 07005KT 5SM BR BKN022
     FM300600 05004KT 4SM BR BKN010
     FM301000 05004KT 3SM BR BKN005
     FM301400 03005KT 6SM BR BKN012=



000
FTUS42 KFFC 291900 AAA
TAFATL
TAF AMD
KATL 291934Z 2920/3024 03008KT 6SM -DZ VCSH SCT008 OVC015
      TEMPO 2920/2923 3SM -SHRA BR BKN008 OVC015
     FM300100 05007KT 6SM BR OVC021
     FM300600 06006KT P6SM SCT025 SCT040
     FM301000 06004KT 3SM BR SCT005
     FM301300 05004KT P6SM FEW015
     FM301800 02006KT P6SM FEW040=



000
FTUS42 KFFC 291900 AAA
TAFPDK
TAF AMD
KPDK 291934Z 2920/3018 03006KT 5SM -DZ VCSH SCT007 OVC015
      TEMPO 2920/2923 2SM -SHRA BR BKN007 OVC015
     FM300100 05005KT 6SM BR OVC021
     FM300600 06003KT P6SM SCT025 SCT040
     FM300900 06003KT 3SM BR SCT005
     FM301400 05004KT P6SM FEW015=



000
FTUS42 KFFC 291900 AAA
TAFAHN
TAF AMD
KAHN 291934Z 2920/3018 06006KT 4SM -SHRA BR BKN006 OVC016
      TEMPO 2921/2924 6SM -DZ BR SCT008 OVC016
     FM300000 08006KT 6SM BR VCSH OVC017
     FM300300 08005KT P6SM OVC027
     FM300600 06005KT 5SM BR BKN035
     FM300900 05004KT 3SM BR SCT005
     FM301400 04005KT 6SM BR SCT015=



000
FTUS42 KFFC 291700
TAFFTY
TAF
KFTY 291726Z 2918/3018 05006KT 6SM -DZ VCSH FEW007 OVC016
      TEMPO 2918/2920 3SM -SHRA BR BKN007 OVC015
     FM292100 05006KT 6SM BR VCSH OVC021
     FM300100 06004KT P6SM SCT025 BKN040
     FM300500 07004KT P6SM SCT040
     FM300900 06003KT 3SM BR SCT005
     FM301400 05004KT P6SM FEW015=



000
FTUS42 KFFC 291700
TAFMCN
TAF
KMCN 291726Z 2918/3018 06007KT 6SM -SHRA BR OVC006
     FM292000 05007KT 6SM -SHRA BR OVC012
     FM300000 06006KT P6SM VCSH OVC017
     FM300300 07005KT 5SM BR BKN022
     FM300600 05004KT 4SM BR BKN010
     FM301000 05004KT 3SM BR BKN005
     FM301400 03005KT 6SM BR BKN012=



000
FTUS42 KFFC 291700
TAFPDK
TAF
KPDK 291726Z 2918/3018 04006KT 6SM -DZ VCSH FEW008 OVC014
      TEMPO 2918/2920 3SM -SHRA BR BKN008 OVC015
     FM292100 05005KT 6SM BR VCSH OVC021
     FM300100 06003KT P6SM SCT025 BKN040
     FM300500 07003KT P6SM SCT040
     FM300900 06003KT 3SM BR SCT005
     FM301400 05004KT P6SM FEW015=



000
FTUS42 KFFC 291700
TAFAHN
TAF
KAHN 291726Z 2918/3018 06006KT 4SM -SHRA BR BKN008 OVC016
      TEMPO 2920/2923 6SM -DZ BR SCT008 OVC016
     FM292300 08006KT 6SM BR VCSH OVC021
     FM300200 08005KT P6SM OVC027
     FM300600 06005KT 5SM BR BKN035
     FM300900 05004KT 3SM BR SCT005
     FM301400 04005KT 6SM BR SCT015=



000
FTUS42 KFFC 291700
TAFCSG
TAF
KCSG 291726Z 2918/3018 08007KT P6SM VCSH OVC009
     FM292000 07007KT P6SM VCSH OVC014
     FM300000 07006KT P6SM VCSH OVC021
     FM300300 08005KT 6SM BR BKN026
     FM300600 07004KT 5SM BR BKN010
     FM301000 06004KT 4SM BR BKN006
     FM301400 05005KT 6SM BR BKN015=



000
FTUS42 KFFC 291700
TAFATL
TAF
KATL 291726Z 2918/3024 05008KT 6SM -DZ VCSH FEW008 OVC015
      TEMPO 2918/2919 3SM -SHRA BR BKN008 OVC015
     FM292100 05007KT 6SM BR VCSH OVC021
     FM300100 06006KT P6SM SCT025 BKN040
     FM300500 07005KT P6SM SCT040
     FM301000 06004KT 3SM BR SCT005
     FM301300 05004KT P6SM FEW015
     FM301800 02006KT P6SM FEW040=



000
FTUS42 KFFC 291700
TAFRYY
TAF
KRYY 291726Z 2918/3018 08006KT 6SM -DZ VCSH FEW007 OVC012
      TEMPO 2918/2920 3SM -SHRA BR BKN007 OVC015
     FM292100 08006KT 6SM BR VCSH OVC021
     FM300100 09004KT P6SM SCT025 BKN040
     FM300500 08004KT P6SM SCT040
     FM300900 07003KT 3SM BR SCT005
     FM301400 05004KT P6SM FEW015=



000
FTUS42 KFFC 291500 AAB
TAFFTY
TAF AMD
KFTY 291546Z 2916/3012 07007KT P6SM VCSH FEW009 OVC018
      TEMPO 2916/2918 4SM -SHRA BR BKN009 OVC017
     FM291800 06005KT 6SM BR VCSH OVC022
     FM300000 08003KT P6SM SCT025 BKN050
     FM300500 07003KT P6SM SCT070
     FM301000 00000KT 5SM BR SCT015=



000
FTUS42 KFFC 291500 AAB
TAFAHN
TAF AMD
KAHN 291546Z 2916/3012 06006KT 3SM -SHRA BR BKN008 OVC018
      TEMPO 2916/2919 5SM BR SCT008 OVC018
     FM291900 07006KT 6SM BR VCSH OVC021
     FM292200 07006KT P6SM OVC027
     FM300500 06005KT P6SM SCT035
     FM301000 00000KT 3SM BR SCT015=



000
FTUS42 KFFC 291500 AAA
TAFMCN
TAF AMD
KMCN 291546Z 2916/3012 06006KT 5SM -SHRA BR OVC006
     FM291900 05007KT 6SM -SHRA BR OVC012
     FM300000 05006KT 6SM BR VCSH OVC017
     FM300300 05005KT 6SM BR BKN022
     FM300600 03004KT 6SM BR BKN008
     FM300800 02005KT 5SM BR SCT005=



000
FTUS42 KFFC 291500 AAB
TAFATL
TAF AMD
KATL 291546Z 2916/3018 07008KT P6SM VCSH FEW008 OVC015
      TEMPO 2916/2918 3SM -SHRA BR BKN008 OVC015
     FM291800 05006KT 6SM BR VCSH OVC021
     FM300000 08006KT P6SM SCT025 BKN050
     FM300500 07005KT P6SM SCT040
     FM301000 05004KT 5SM BR SCT015
     FM301200 05004KT P6SM FEW035=



000
FTUS42 KFFC 291500 AAB
TAFPDK
TAF AMD
KPDK 291546Z 2916/3012 04006KT 5SM BR VCSH BKN006 OVC014
      TEMPO 2916/2918 3SM -SHRA BR SCT008 OVC015
     FM291800 06005KT 6SM BR VCSH OVC021
     FM300000 08003KT P6SM SCT025 BKN050
     FM300500 07003KT P6SM SCT070
     FM301000 00000KT 5SM BR SCT015=



000
FTUS42 KFFC 291500 AAB
TAFRYY
TAF AMD
KRYY 291546Z 2916/3012 09005KT P6SM VCSH SCT008 OVC015
      TEMPO 2916/2918 4SM -SHRA BR BKN008 OVC015
     FM291800 06005KT 6SM BR VCSH OVC021
     FM300000 08003KT P6SM SCT025 BKN050
     FM300500 07003KT P6SM SCT070
     FM301000 00000KT 5SM BR SCT015=



000
FTUS42 KFFC 291500 AAB
TAFCSG
TAF AMD
KCSG 291546Z 2916/3012 06006KT 6SM -SHRA OVC008
     FM291800 06008KT 4SM -SHRA BR OVC018
     FM292100 06006KT 6SM -SHRA BR OVC025
     FM300000 06005KT P6SM BKN025
     FM300600 06004KT 6SM BR SCT015=



000
FTUS42 KFFC 291300 AAA
TAFRYY
TAF AMD
KRYY 291359Z 2914/3012 08005KT 6SM -SHRA BKN008 OVC017
      TEMPO 2914/2917 4SM -DZ BR SCT008 OVC017
     FM291700 06005KT 6SM BR VCSH OVC021
     FM300000 08003KT P6SM SCT025 BKN050
     FM300500 07003KT P6SM SCT070
     FM301000 00000KT 5SM BR SCT015=



000
FTUS42 KFFC 291300 AAA
TAFCSG
TAF AMD
KCSG 291359Z 2914/3012 06006KT 6SM -SHRA OVC009
      TEMPO 2914/2918 4SM SHRA BR OVC012
     FM291800 06008KT 4SM -SHRA BR OVC018
     FM292100 06006KT 6SM -SHRA BR OVC025
     FM300000 06005KT P6SM BKN025
     FM300600 06004KT 6SM BR SCT015=



000
FTUS42 KFFC 291300 AAA
TAFAHN
TAF AMD
KAHN 291359Z 2914/3012 06006KT 5SM -SHRA BR SCT006 OVC022
      TEMPO 2914/2918 3SM SHRA BR BKN006 OVC022
     FM291800 07006KT 6SM BR VCSH OVC023
     FM292200 07006KT P6SM OVC027
     FM300500 06005KT P6SM SCT035
     FM301000 00000KT 3SM BR SCT015=



000
FTUS42 KFFC 291300 AAA
TAFATL
TAF AMD
KATL 291359Z 2914/3018 08008KT 6SM -SHRA FEW008 OVC015
      TEMPO 2914/2917 3SM -DZ BR BKN008 OVC015
     FM291700 05006KT 6SM BR VCSH OVC021
     FM300000 08006KT P6SM SCT025 BKN050
     FM300500 07005KT P6SM SCT040
     FM301000 05004KT 5SM BR SCT015
     FM301200 05004KT P6SM FEW035=



000
FTUS42 KFFC 291300 AAA
TAFPDK
TAF AMD
KPDK 291359Z 2914/3012 06006KT 6SM -SHRA FEW008 OVC019
      TEMPO 2914/2917 4SM -DZ BR BKN008 OVC019
     FM291700 06005KT 6SM BR VCSH OVC021
     FM300000 08003KT P6SM SCT025 BKN050
     FM300500 07003KT P6SM SCT070
     FM301000 00000KT 5SM BR SCT015=



000
FTUS42 KFFC 291300 AAA
TAFFTY
TAF AMD
KFTY 291359Z 2914/3012 05006KT 6SM -SHRA FEW009 OVC017
      TEMPO 2914/2917 4SM -DZ BR BKN009 OVC017
     FM291700 06005KT 6SM BR VCSH OVC022
     FM300000 08003KT P6SM SCT025 BKN050
     FM300500 07003KT P6SM SCT070
     FM301000 00000KT 5SM BR SCT015=



    US Dept of Commerce
    National Oceanic and Atmospheric Administration
    National Weather Service
    1325 East West Highway
    Silver Spring, MD 20910
    Page Author: NWS Internet Services Team
Disclaimer
Information Quality
Credits
Glossary
Privacy Policy
Freedom of Information Act (FOIA)
About Us
Career Opportunities